Time;durP1;ratioP1;P1;durP2;ratioP2;P2;SDS_P1;SDS_P2;PMS_P1;PMS_P2;Temp;Humidity;BMP_temperature;BMP_pressure;BME280_temperature;BME280_humidity;BME280_pressure;Samples;Min_cycle;Max_cycle;Signal;HPM_P1;HPM_P2
2021/11/14 00:01:57;;;;;;;4.83;4.30;;;11.30;1.00;;;;;;5042009;28;20531;-80
2021/11/14 00:04:26;;;;;;;7.03;3.97;;;11.30;1.00;;;;;;5049471;28;20504;-78
2021/11/14 00:06:54;;;;;;;7.27;4.20;;;11.40;99.90;;;;;;5048268;28;20451;-79
2021/11/14 00:09:22;;;;;;;7.33;4.47;;;11.40;99.90;;;;;;5049454;28;20447;-80
2021/11/14 00:11:52;;;;;;;6.57;4.40;;;11.40;99.90;;;;;;5054524;28;20550;-81
2021/11/14 00:14:21;;;;;;;5.60;4.07;;;11.40;99.90;;;;;;5055624;28;20450;-80
2021/11/14 00:16:49;;;;;;;9.33;4.17;;;11.40;99.90;;;;;;5058382;28;20857;-82
2021/11/14 00:19:18;;;;;;;5.77;4.20;;;11.30;99.90;;;;;;5048337;28;20455;-82
2021/11/14 00:21:47;;;;;;;7.30;4.80;;;11.40;99.90;;;;;;5053433;28;20525;-82
2021/11/14 00:24:17;;;;;;;5.60;4.20;;;11.40;99.90;;;;;;5046656;28;20536;-82
2021/11/14 00:26:45;;;;;;;5.93;5.43;;;11.40;99.90;;;;;;5047842;28;20779;-82
2021/11/14 00:29:15;;;;;;;5.93;4.70;;;11.40;99.90;;;;;;5055826;28;20508;-81
2021/11/14 00:31:44;;;;;;;4.57;3.50;;;11.40;99.90;;;;;;5041815;28;20470;-81
2021/11/14 00:34:12;;;;;;;5.27;3.93;;;11.30;99.90;;;;;;5054808;28;20447;-85
2021/11/14 00:36:42;;;;;;;5.10;4.43;;;11.40;99.90;;;;;;5051195;28;21144;-81
2021/11/14 00:39:13;;;;;;;4.20;3.80;;;11.40;99.90;;;;;;5050189;28;20502;-80
2021/11/14 00:41:42;;;;;;;4.90;4.40;;;11.40;99.90;;;;;;5056412;28;20477;-81
2021/11/14 00:44:10;;;;;;;6.50;4.70;;;11.40;99.90;;;;;;5055900;28;20467;-81
2021/11/14 00:46:40;;;;;;;5.40;3.87;;;11.50;99.90;;;;;;5055603;28;21030;-82
2021/11/14 00:49:08;;;;;;;6.43;4.60;;;11.50;99.90;;;;;;5048801;28;20487;-81
2021/11/14 00:51:36;;;;;;;5.50;4.70;;;11.40;99.90;;;;;;5048949;28;20485;-81
2021/11/14 00:54:06;;;;;;;5.90;3.47;;;11.60;99.90;;;;;;5036710;28;20550;-81
2021/11/14 00:56:35;;;;;;;5.90;4.70;;;11.50;99.90;;;;;;5044998;28;20459;-81
2021/11/14 00:59:04;;;;;;;5.00;4.10;;;11.50;99.90;;;;;;5048401;28;20462;-80
2021/11/14 01:01:32;;;;;;;7.27;3.63;;;11.50;99.90;;;;;;5053506;28;20478;-81
2021/11/14 01:04:02;;;;;;;7.43;4.53;;;11.50;99.90;;;;;;5038470;28;20483;-80
2021/11/14 01:06:31;;;;;;;6.30;4.80;;;11.20;99.90;;;;;;5053117;28;20583;-80
2021/11/14 01:08:59;;;;;;;7.70;4.50;;;11.10;99.90;;;;;;5051124;28;20469;-83
2021/11/14 01:11:27;;;;;;;5.13;3.80;;;11.40;99.90;;;;;;5043767;28;20510;-83
2021/11/14 01:13:56;;;;;;;4.20;3.57;;;11.30;1.00;;;;;;5050573;28;20822;-82
2021/11/14 01:16:25;;;;;;;4.20;3.80;;;11.40;1.00;;;;;;5048859;28;20500;-82
2021/11/14 01:18:53;;;;;;;5.93;5.10;;;11.40;99.90;;;;;;5040126;28;20459;-80
2021/11/14 01:21:24;;;;;;;4.03;3.23;;;11.50;99.90;;;;;;5050052;28;20479;-81
2021/11/14 01:23:55;;;;;;;7.63;3.83;;;11.40;99.90;;;;;;5052807;28;20463;-80
2021/11/14 01:26:23;;;;;;;4.67;3.50;;;11.40;99.90;;;;;;5036758;28;20819;-82
2021/11/14 01:28:51;;;;;;;6.90;4.77;;;11.50;99.90;;;;;;5043143;28;20789;-82
2021/11/14 01:31:20;;;;;;;6.33;4.23;;;11.50;99.90;;;;;;5041739;28;20479;-83
2021/11/14 01:33:48;;;;;;;5.50;4.43;;;11.50;99.90;;;;;;5039093;28;20510;-82
2021/11/14 01:36:16;;;;;;;4.33;3.93;;;11.40;1.00;;;;;;5053319;28;20448;-82
2021/11/14 01:38:46;;;;;;;7.83;4.87;;;11.40;1.00;;;;;;5049605;28;21011;-82
2021/11/14 01:41:15;;;;;;;7.63;5.30;;;11.50;1.00;;;;;;5051229;28;20578;-80
2021/11/14 01:43:47;;;;;;;5.80;4.40;;;11.40;1.00;;;;;;5050707;28;20535;-82
2021/11/14 01:46:17;;;;;;;5.80;4.17;;;11.40;1.00;;;;;;5041269;28;20502;-83
2021/11/14 01:48:47;;;;;;;7.80;4.50;;;11.40;1.00;;;;;;5044717;28;20493;-81
2021/11/14 01:51:16;;;;;;;5.17;4.60;;;11.60;1.00;;;;;;5048825;28;20544;-82
2021/11/14 01:53:46;;;;;;;6.17;4.13;;;11.40;1.00;;;;;;5046252;28;20443;-82
2021/11/14 01:56:17;;;;;;;5.07;3.83;;;11.30;1.00;;;;;;5046971;28;20472;-82
2021/11/14 01:58:46;;;;;;;5.33;4.40;;;11.30;1.00;;;;;;5052021;28;20834;-82
2021/11/14 02:01:18;;;;;;;5.17;4.10;;;11.30;1.00;;;;;;5050241;28;20484;-83
2021/11/14 02:03:50;;;;;;;6.93;5.10;;;11.30;1.00;;;;;;5039385;28;21337;-82
2021/11/14 02:06:18;;;;;;;8.63;5.10;;;11.30;1.00;;;;;;5055583;28;20474;-80
2021/11/14 02:08:48;;;;;;;7.43;4.87;;;11.30;1.00;;;;;;5045986;28;20462;-82
2021/11/14 02:11:18;;;;;;;8.00;4.77;;;11.20;1.00;;;;;;5037469;28;20483;-81
2021/11/14 02:13:49;;;;;;;5.73;5.13;;;11.20;1.00;;;;;;5040986;28;20546;-83
2021/11/14 02:16:21;;;;;;;5.40;4.27;;;11.30;1.00;;;;;;5064970;28;20448;-81
2021/11/14 02:18:49;;;;;;;8.90;4.30;;;11.30;1.00;;;;;;5048782;28;20449;-79
2021/11/14 02:21:20;;;;;;;4.20;3.80;;;11.20;1.00;;;;;;5046468;28;20472;-79
2021/11/14 02:23:48;;;;;;;6.57;4.83;;;11.20;1.00;;;;;;5050608;28;20535;-80
2021/11/14 02:26:17;;;;;;;7.20;5.10;;;11.30;1.00;;;;;;5052612;28;20535;-81
2021/11/14 02:28:45;;;;;;;6.20;4.83;;;11.30;1.00;;;;;;5047929;28;20440;-83
2021/11/14 02:31:13;;;;;;;7.63;5.50;;;11.30;99.90;;;;;;5051029;28;20481;-80
2021/11/14 02:33:42;;;;;;;6.57;4.23;;;11.40;99.90;;;;;;5045554;28;20452;-80
2021/11/14 02:36:11;;;;;;;5.50;4.07;;;11.40;99.90;;;;;;5035712;28;20451;-81
2021/11/14 02:38:42;;;;;;;7.77;5.83;;;11.30;99.90;;;;;;5046049;28;20455;-81
2021/11/14 02:41:11;;;;;;;6.27;4.93;;;11.40;99.90;;;;;;5041636;28;20475;-81
2021/11/14 02:43:43;;;;;;;8.40;5.27;;;11.40;99.90;;;;;;5039513;28;20438;-82
2021/11/14 02:46:12;;;;;;;5.87;4.43;;;11.40;99.90;;;;;;5038101;28;20466;-81
2021/11/14 02:48:41;;;;;;;7.20;5.40;;;11.40;99.90;;;;;;5052099;28;20452;-81
2021/11/14 02:51:12;;;;;;;8.33;5.73;;;11.30;99.90;;;;;;5046054;28;20821;-81
2021/11/14 02:53:42;;;;;;;8.20;5.53;;;11.30;99.90;;;;;;5042910;28;20483;-83
2021/11/14 02:56:12;;;;;;;8.43;4.80;;;11.30;99.90;;;;;;5045029;28;20857;-82
2021/11/14 02:58:42;;;;;;;6.73;4.80;;;11.30;99.90;;;;;;5040214;28;20458;-80
2021/11/14 03:01:14;;;;;;;7.07;5.10;;;11.40;95.20;;;;;;5041717;28;20476;-82
2021/11/14 03:03:45;;;;;;;8.10;5.37;;;11.40;58.20;;;;;;5044507;28;20485;-82
2021/11/14 03:06:13;;;;;;;8.70;5.73;;;11.40;99.90;;;;;;5041425;28;20490;-81
2021/11/14 03:08:43;;;;;;;6.60;4.73;;;11.40;99.90;;;;;;5045987;28;20460;-82
2021/11/14 03:11:11;;;;;;;9.40;5.80;;;11.40;99.90;;;;;;5045282;28;20484;-81
2021/11/14 03:13:39;;;;;;;6.50;5.43;;;11.40;99.90;;;;;;5044306;28;20849;-81
2021/11/14 03:16:13;;;;;;;8.53;5.20;;;11.40;95.00;;;;;;5047645;28;20542;-82
2021/11/14 03:18:41;;;;;;;6.57;4.73;;;11.40;99.90;;;;;;5044102;28;20451;-84
2021/11/14 03:21:09;;;;;;;7.40;4.90;;;11.40;99.90;;;;;;5046155;28;20471;-83
2021/11/14 03:23:38;;;;;;;7.17;4.93;;;11.30;99.90;;;;;;5034527;28;20444;-82
2021/11/14 03:26:08;;;;;;;8.43;4.90;;;11.40;99.90;;;;;;5037550;28;20476;-81
2021/11/14 03:28:36;;;;;;;6.60;5.10;;;11.40;99.90;;;;;;5043520;28;20455;-82
2021/11/14 03:31:04;;;;;;;7.70;6.10;;;11.40;99.90;;;;;;5046234;28;20487;-82
2021/11/14 03:33:33;;;;;;;5.70;4.20;;;11.40;99.90;;;;;;5046898;28;20512;-82
2021/11/14 03:36:05;;;;;;;6.10;4.90;;;11.40;99.90;;;;;;5041594;28;20456;-83
2021/11/14 03:38:37;;;;;;;7.57;6.20;;;11.40;99.90;;;;;;5049293;28;20509;-81
2021/11/14 03:41:10;;;;;;;7.37;4.77;;;11.40;99.90;;;;;;5046918;28;20913;-82
2021/11/14 03:43:38;;;;;;;6.23;5.27;;;11.40;99.90;;;;;;5044669;28;20451;-83
2021/11/14 03:46:07;;;;;;;15.00;6.70;;;11.40;99.90;;;;;;5038194;28;20468;-83
2021/11/14 03:48:38;;;;;;;14.97;7.40;;;11.40;99.90;;;;;;5051852;28;20452;-83
2021/11/14 03:51:07;;;;;;;10.17;5.87;;;11.40;99.90;;;;;;5050696;28;20836;-81
2021/11/14 03:53:35;;;;;;;9.83;5.40;;;11.40;99.90;;;;;;5052740;28;20455;-83
2021/11/14 03:56:04;;;;;;;5.53;4.20;;;11.40;99.90;;;;;;5047844;28;20475;-82
2021/11/14 03:58:34;;;;;;;6.80;5.17;;;11.40;99.90;;;;;;5044537;28;20858;-84
2021/11/14 04:01:06;;;;;;;5.77;5.20;;;11.40;99.90;;;;;;5044075;28;20508;-83
2021/11/14 04:03:35;;;;;;;6.63;4.20;;;11.40;99.90;;;;;;5040890;28;20463;-84
2021/11/14 04:06:04;;;;;;;5.23;4.23;;;11.40;99.90;;;;;;5052519;28;20588;-82
2021/11/14 04:08:32;;;;;;;8.30;5.10;;;11.40;99.90;;;;;;5051818;28;20506;-82
2021/11/14 04:11:01;;;;;;;7.63;5.07;;;11.40;99.90;;;;;;5049116;28;20482;-84
2021/11/14 04:13:31;;;;;;;9.20;4.50;;;11.40;99.90;;;;;;5048525;28;20455;-84
2021/11/14 04:16:03;;;;;;;6.30;5.20;;;11.40;99.90;;;;;;5047635;28;20442;-84
2021/11/14 04:18:31;;;;;;;5.73;4.53;;;11.30;99.90;;;;;;5050149;28;20451;-83
2021/11/14 04:21:00;;;;;;;4.87;4.13;;;11.40;99.90;;;;;;5066931;28;20479;-82
2021/11/14 04:23:28;;;;;;;6.70;4.03;;;11.30;99.90;;;;;;5037764;28;20448;-82
2021/11/14 04:25:57;;;;;;;5.70;5.10;;;11.30;99.90;;;;;;5051425;28;20482;-82
2021/11/14 04:28:25;;;;;;;6.80;5.10;;;11.40;99.90;;;;;;5048141;28;20452;-80
2021/11/14 04:30:53;;;;;;;6.90;4.30;;;11.40;99.90;;;;;;5044632;28;20503;-82
2021/11/14 04:33:24;;;;;;;6.87;4.63;;;11.30;99.90;;;;;;5043602;28;20456;-83
2021/11/14 04:35:52;;;;;;;5.00;3.90;;;11.30;99.90;;;;;;5050929;28;20971;-82
2021/11/14 04:38:21;;;;;;;8.80;5.37;;;11.30;99.90;;;;;;5049224;28;20509;-80
2021/11/14 04:40:50;;;;;;;8.80;4.17;;;11.30;99.90;;;;;;5046696;28;20464;-80
2021/11/14 04:43:19;;;;;;;6.50;4.83;;;11.40;99.90;;;;;;5044186;28;20451;-80
2021/11/14 04:45:49;;;;;;;9.20;5.53;;;11.30;99.90;;;;;;5037312;28;20449;-81
2021/11/14 04:48:18;;;;;;;7.67;4.30;;;11.40;99.90;;;;;;5055347;28;20543;-82
2021/11/14 04:50:48;;;;;;;6.93;4.77;;;11.40;99.90;;;;;;5057657;28;20487;-82
2021/11/14 04:53:16;;;;;;;7.47;5.10;;;11.40;99.90;;;;;;5047979;28;20451;-83
2021/11/14 04:55:45;;;;;;;5.20;4.10;;;11.40;99.90;;;;;;5058053;28;20514;-80
2021/11/14 04:58:14;;;;;;;8.07;5.00;;;11.40;99.90;;;;;;5054325;28;20449;-81
2021/11/14 05:00:45;;;;;;;7.10;5.30;;;11.30;99.90;;;;;;5051167;28;20486;-80
2021/11/14 05:03:15;;;;;;;12.03;4.80;;;11.30;99.90;;;;;;5050832;28;20466;-82
2021/11/14 05:05:43;;;;;;;10.77;6.07;;;11.40;99.90;;;;;;5054371;28;20459;-81
2021/11/14 05:08:13;;;;;;;9.27;6.60;;;11.40;99.90;;;;;;5044727;28;20458;-80
2021/11/14 05:10:43;;;;;;;7.60;5.00;;;11.40;99.90;;;;;;5056839;28;20489;-82
2021/11/14 05:13:12;;;;;;;8.60;6.33;;;11.40;99.90;;;;;;5051306;28;20447;-80
2021/11/14 05:15:40;;;;;;;7.93;5.50;;;11.40;99.90;;;;;;5055276;28;20451;-81
2021/11/14 05:18:08;;;;;;;7.87;5.73;;;11.40;99.90;;;;;;5044876;28;20448;-81
2021/11/14 05:20:36;;;;;;;7.00;5.37;;;11.30;99.90;;;;;;5042004;28;20483;-82
2021/11/14 05:23:05;;;;;;;9.13;6.13;;;11.30;99.90;;;;;;5047466;28;20816;-80
2021/11/14 05:25:35;;;;;;;11.13;6.63;;;11.30;99.90;;;;;;5047679;28;20520;-80
2021/11/14 05:28:03;;;;;;;8.53;4.93;;;11.30;99.90;;;;;;5049830;28;21301;-81
2021/11/14 05:30:31;;;;;;;6.33;5.30;;;11.30;99.90;;;;;;5045417;28;20555;-80
2021/11/14 05:33:00;;;;;;;12.23;7.43;;;11.30;99.90;;;;;;5050590;28;20520;-82
2021/11/14 05:35:28;;;;;;;9.23;5.90;;;11.30;99.90;;;;;;5040696;28;20874;-81
2021/11/14 05:37:56;;;;;;;6.30;5.30;;;11.30;99.90;;;;;;5047769;28;20467;-83
2021/11/14 05:40:25;;;;;;;10.30;5.97;;;11.20;99.90;;;;;;5046776;28;20470;-81
2021/11/14 05:42:54;;;;;;;11.10;8.07;;;11.10;99.90;;;;;;5043249;28;20616;-79
2021/11/14 05:45:23;;;;;;;9.00;6.90;;;11.10;99.90;;;;;;5050984;28;20859;-81
2021/11/14 05:47:51;;;;;;;10.80;6.80;;;11.20;99.90;;;;;;5047766;28;21266;-81
2021/11/14 05:50:20;;;;;;;11.27;7.23;;;11.30;1.00;;;;;;5048921;28;20484;-83
2021/11/14 05:52:48;;;;;;;8.90;6.23;;;11.30;18.70;;;;;;5042664;28;20479;-81
2021/11/14 05:55:17;;;;;;;8.23;5.77;;;11.50;25.40;;;;;;5045021;28;20455;-80
2021/11/14 05:57:51;;;;;;;9.23;5.23;;;11.20;74.70;;;;;;5047244;28;20456;-80
2021/11/14 06:00:25;;;;;;;8.60;6.23;;;11.20;1.00;;;;;;5048528;28;20471;-80
2021/11/14 06:02:57;;;;;;;8.63;5.80;;;11.20;63.20;;;;;;5044719;28;20467;-79
2021/11/14 06:05:26;;;;;;;10.07;5.90;;;11.20;16.70;;;;;;5042980;28;20868;-83
2021/11/14 06:07:54;;;;;;;10.20;6.20;;;11.20;1.00;;;;;;5039303;28;20471;-82
2021/11/14 06:10:22;;;;;;;7.70;6.33;;;11.20;1.00;;;;;;5053573;28;20503;-81
2021/11/14 06:12:50;;;;;;;10.10;6.77;;;11.10;99.90;;;;;;5046287;28;20509;-82
2021/11/14 06:15:22;;;;;;;10.43;7.30;;;11.20;99.90;;;;;;5037945;28;20451;-80
2021/11/14 06:17:52;;;;;;;10.40;6.87;;;11.20;99.90;;;;;;5045454;28;20447;-84
2021/11/14 06:20:22;;;;;;;13.07;8.17;;;11.20;99.90;;;;;;5044330;28;20482;-80
2021/11/14 06:22:51;;;;;;;8.10;6.10;;;11.20;99.90;;;;;;5041418;28;20459;-82
2021/11/14 06:25:19;;;;;;;10.20;6.30;;;11.20;99.90;;;;;;5036346;28;20459;-82
2021/11/14 06:27:48;;;;;;;8.50;6.07;;;11.10;99.90;;;;;;5046610;28;20489;-83
2021/11/14 06:30:17;;;;;;;11.63;6.87;;;11.10;99.90;;;;;;5046276;28;21100;-82
2021/11/14 06:32:45;;;;;;;9.97;6.00;;;11.20;99.90;;;;;;5043079;28;20452;-83
2021/11/14 06:35:15;;;;;;;11.07;7.47;;;11.20;99.90;;;;;;5046024;28;20447;-81
2021/11/14 06:37:43;;;;;;;12.70;6.87;;;11.20;99.90;;;;;;5050694;28;20940;-82
2021/11/14 06:40:12;;;;;;;9.90;7.27;;;11.20;99.90;;;;;;5047365;28;20503;-82
2021/11/14 06:42:41;;;;;;;11.67;7.27;;;11.20;99.90;;;;;;5048190;28;20534;-81
2021/11/14 06:45:10;;;;;;;7.83;5.37;;;11.20;99.90;;;;;;5049217;28;20963;-80
2021/11/14 06:47:38;;;;;;;8.83;5.33;;;11.20;99.90;;;;;;5049303;28;20491;-81
2021/11/14 06:50:10;;;;;;;11.13;6.77;;;11.20;99.90;;;;;;5047447;28;20494;-81
2021/11/14 06:52:41;;;;;;;16.87;7.70;;;11.20;99.90;;;;;;5042299;28;20448;-82
2021/11/14 06:55:12;;;;;;;8.87;6.63;;;11.20;99.90;;;;;;5039667;28;20455;-83
2021/11/14 06:57:41;;;;;;;10.63;6.47;;;11.20;99.90;;;;;;5045291;28;20872;-81
2021/11/14 07:00:12;;;;;;;10.60;6.87;;;11.20;99.90;;;;;;5038066;28;20480;-80
2021/11/14 07:02:40;;;;;;;9.70;6.60;;;11.20;99.90;;;;;;5039336;28;20444;-80
2021/11/14 07:05:10;;;;;;;10.77;7.23;;;11.20;99.90;;;;;;5043754;28;20816;-82
2021/11/14 07:07:40;;;;;;;11.70;6.50;;;11.20;99.90;;;;;;5045595;28;20472;-81
2021/11/14 07:10:12;;;;;;;9.67;6.20;;;11.20;99.90;;;;;;5039423;28;20474;-80
2021/11/14 07:12:41;;;;;;;8.53;5.57;;;11.30;99.90;;;;;;5041000;28;20455;-82
2021/11/14 07:15:13;;;;;;;9.00;6.03;;;11.30;99.90;;;;;;5047172;28;20458;-82
2021/11/14 07:17:42;;;;;;;8.20;7.00;;;11.30;99.90;;;;;;5048608;28;20526;-81
2021/11/14 07:20:13;;;;;;;12.47;6.97;;;11.30;99.90;;;;;;5041206;28;20475;-81
2021/11/14 07:22:44;;;;;;;11.10;6.80;;;11.30;99.90;;;;;;5047639;28;20474;-80
2021/11/14 07:25:17;;;;;;;11.30;6.37;;;11.30;99.90;;;;;;5047615;28;20456;-78
2021/11/14 07:27:47;;;;;;;10.07;6.50;;;11.30;99.90;;;;;;5046905;28;20494;-79
2021/11/14 07:30:16;;;;;;;8.70;5.73;;;11.30;99.90;;;;;;5048454;28;20533;-78
2021/11/14 07:32:45;;;;;;;11.77;6.40;;;11.30;99.90;;;;;;5042920;28;20458;-78
2021/11/14 07:35:15;;;;;;;9.63;6.67;;;11.30;99.90;;;;;;5046890;28;20453;-79
2021/11/14 07:37:45;;;;;;;13.47;7.23;;;11.30;99.90;;;;;;5048597;28;20443;-79
2021/11/14 07:40:15;;;;;;;10.50;6.17;;;11.40;99.90;;;;;;5048492;28;20558;-78
2021/11/14 07:42:45;;;;;;;7.80;5.33;;;11.40;99.90;;;;;;5048521;28;20452;-78
2021/11/14 07:45:15;;;;;;;8.13;5.73;;;11.40;1.00;;;;;;5041748;28;20828;-78
2021/11/14 07:47:43;;;;;;;12.60;8.07;;;11.40;1.00;;;;;;5041241;28;20467;-80
2021/11/14 07:50:13;;;;;;;11.13;6.30;;;11.50;1.00;;;;;;5048340;28;21051;-79
2021/11/14 07:52:42;;;;;;;9.47;6.73;;;11.50;43.80;;;;;;5044550;28;20526;-80
2021/11/14 07:55:12;;;;;;;9.30;5.87;;;11.60;99.90;;;;;;5047154;28;21005;-79
2021/11/14 07:57:43;;;;;;;10.33;5.97;;;11.50;99.90;;;;;;5048506;28;20505;-81
2021/11/14 08:00:14;;;;;;;8.33;5.67;;;11.60;1.00;;;;;;5038957;28;20490;-81
2021/11/14 08:02:42;;;;;;;9.77;5.77;;;11.80;99.90;;;;;;5039658;28;20504;-80
2021/11/14 08:05:11;;;;;;;7.33;5.83;;;11.70;51.00;;;;;;5045532;28;20455;-79
2021/11/14 08:07:39;;;;;;;8.30;6.23;;;11.80;99.90;;;;;;5042978;28;20545;-79
2021/11/14 08:10:09;;;;;;;7.03;6.40;;;11.90;1.00;;;;;;5041848;28;20488;-80
2021/11/14 08:12:38;;;;;;;5.97;4.73;;;11.80;1.00;;;;;;5043696;28;20459;-80
2021/11/14 08:15:08;;;;;;;5.70;4.83;;;11.90;27.60;;;;;;5041972;28;20986;-81
2021/11/14 08:17:36;;;;;;;7.97;6.43;;;11.90;15.10;;;;;;5036550;28;21029;-79
2021/11/14 08:20:05;;;;;;;8.13;4.80;;;12.00;1.00;;;;;;5041303;28;20488;-81
2021/11/14 08:22:34;;;;;;;6.83;4.37;;;11.90;1.00;;;;;;5033773;28;20443;-81
2021/11/14 08:25:04;;;;;;;11.50;6.43;;;11.90;99.90;;;;;;5035624;28;20465;-80
2021/11/14 08:27:33;;;;;;;8.77;5.47;;;11.90;99.90;;;;;;5045781;28;20444;-81
2021/11/14 08:30:04;;;;;;;6.40;4.80;;;11.80;99.90;;;;;;5035086;28;20476;-80
2021/11/14 08:32:33;;;;;;;10.70;7.37;;;11.80;99.90;;;;;;5042409;28;20522;-80
2021/11/14 08:35:01;;;;;;;9.83;6.10;;;11.80;99.90;;;;;;5048557;28;20517;-80
2021/11/14 08:37:29;;;;;;;11.50;7.87;;;11.80;99.90;;;;;;5041965;28;20456;-80
2021/11/14 08:39:57;;;;;;;10.03;5.50;;;11.70;1.00;;;;;;5039362;28;20460;-80
2021/11/14 08:42:25;;;;;;;9.10;6.30;;;11.70;1.00;;;;;;5034345;28;20464;-80
2021/11/14 08:44:54;;;;;;;10.50;7.37;;;11.60;1.00;;;;;;5044409;28;20460;-82
2021/11/14 08:47:23;;;;;;;11.30;6.70;;;11.70;1.00;;;;;;5044523;28;20935;-81
2021/11/14 08:49:51;;;;;;;7.87;6.03;;;11.70;1.00;;;;;;5042507;28;20541;-82
2021/11/14 08:52:20;;;;;;;11.80;7.43;;;11.70;99.90;;;;;;5040490;28;20482;-81
2021/11/14 08:54:48;;;;;;;9.93;6.70;;;11.70;1.00;;;;;;5038573;28;20474;-81
2021/11/14 08:57:18;;;;;;;12.17;7.23;;;11.70;1.00;;;;;;5047990;28;20459;-79
2021/11/14 08:59:46;;;;;;;13.10;7.53;;;11.60;99.90;;;;;;5045864;28;20455;-79
2021/11/14 09:02:14;;;;;;;10.93;7.27;;;11.70;99.90;;;;;;5044866;28;20448;-79
2021/11/14 09:04:45;;;;;;;14.37;8.27;;;11.70;99.90;;;;;;5041849;28;20463;-80
2021/11/14 09:07:14;;;;;;;10.33;6.53;;;11.70;1.00;;;;;;5045831;28;20484;-82
2021/11/14 09:09:42;;;;;;;8.97;6.40;;;11.70;1.00;;;;;;5052096;28;20477;-81
2021/11/14 09:12:11;;;;;;;10.73;7.63;;;11.80;1.00;;;;;;5039831;28;20472;-80
2021/11/14 09:14:39;;;;;;;10.70;7.63;;;11.70;75.10;;;;;;5043254;28;20463;-80
2021/11/14 09:17:08;;;;;;;7.87;6.03;;;11.70;99.90;;;;;;5041787;28;20435;-81
2021/11/14 09:19:37;;;;;;;9.20;7.50;;;11.70;99.90;;;;;;5043890;28;20529;-80
2021/11/14 09:22:07;;;;;;;13.57;7.63;;;11.70;1.00;;;;;;5042693;28;20472;-81
2021/11/14 09:24:35;;;;;;;10.47;6.80;;;11.70;99.90;;;;;;5057972;28;20512;-82
2021/11/14 09:27:04;;;;;;;10.10;7.83;;;11.70;99.90;;;;;;5037650;28;20458;-81
2021/11/14 09:29:37;;;;;;;8.40;7.00;;;11.70;99.90;;;;;;5042133;28;20474;-81
2021/11/14 09:32:07;;;;;;;8.77;6.67;;;11.70;1.00;;;;;;5040292;28;20472;-81
2021/11/14 09:34:35;;;;;;;9.20;7.40;;;11.60;1.00;;;;;;5043844;28;20452;-81
2021/11/14 09:37:04;;;;;;;12.03;7.50;;;11.50;1.00;;;;;;5046610;28;20538;-80
2021/11/14 09:39:34;;;;;;;10.53;6.07;;;11.50;1.00;;;;;;5043626;28;20502;-82
2021/11/14 09:42:02;;;;;;;8.67;6.53;;;11.60;1.00;;;;;;5049889;28;20491;-80
2021/11/14 09:44:31;;;;;;;11.53;7.93;;;11.60;1.00;;;;;;5041291;28;20948;-81
2021/11/14 09:47:01;;;;;;;9.33;7.30;;;11.60;1.00;;;;;;5038893;28;20471;-82
2021/11/14 09:49:32;;;;;;;9.13;6.10;;;11.60;1.00;;;;;;5050146;28;20490;-81
2021/11/14 09:52:02;;;;;;;12.70;6.93;;;11.70;1.00;;;;;;5046058;28;20987;-83
2021/11/14 09:54:33;;;;;;;11.17;6.47;;;11.70;99.90;;;;;;5046292;28;20546;-83
2021/11/14 09:57:02;;;;;;;10.07;6.80;;;11.70;1.00;;;;;;5050690;28;21374;-83
2021/11/14 09:59:30;;;;;;;10.20;6.93;;;11.70;1.00;;;;;;5036503;28;20508;-79
2021/11/14 10:02:01;;;;;;;10.00;7.13;;;11.70;1.00;;;;;;5045126;28;21171;-80
2021/11/14 10:04:29;;;;;;;10.43;6.40;;;11.70;1.00;;;;;;5043454;28;20483;-84
2021/11/14 10:07:06;;;;;;;10.20;6.17;;;11.80;1.00;;;;;;5050225;28;20441;-80
2021/11/14 10:09:39;;;;;;;9.87;6.70;;;11.70;1.00;;;;;;5040232;28;20480;-82
2021/11/14 10:12:14;;;;;;;10.83;6.20;;;11.70;1.00;;;;;;5040039;28;20464;-80
2021/11/14 10:14:43;;;;;;;12.53;7.17;;;11.80;1.00;;;;;;5038382;28;20456;-80
2021/11/14 10:17:25;;;;;;;9.80;6.60;;;11.80;1.00;;;;;;5035446;28;20455;-76
2021/11/14 10:20:09;;;;;;;8.57;6.90;;;11.90;1.00;;;;;;5030926;28;20444;-81
2021/11/14 10:22:40;;;;;;;10.50;5.73;;;11.90;99.90;;;;;;5047102;28;20443;-81
2021/11/14 10:25:12;;;;;;;9.77;6.30;;;11.80;99.90;;;;;;5050682;28;20457;-80
2021/11/14 10:27:41;;;;;;;11.70;8.30;;;11.80;1.00;;;;;;5044865;28;20455;-80
2021/11/14 10:30:12;;;;;;;7.90;6.20;;;11.80;1.00;;;;;;5042138;28;20479;-79
2021/11/14 10:32:41;;;;;;;7.70;5.53;;;11.80;1.00;;;;;;5039273;28;20510;-80
2021/11/14 10:35:10;;;;;;;8.67;6.00;;;11.90;1.00;;;;;;5050588;28;20459;-79
2021/11/14 10:37:44;;;;;;;11.60;6.60;;;11.80;1.00;;;;;;5040234;28;20530;-80
2021/11/14 10:40:18;;;;;;;8.73;6.33;;;11.80;1.00;;;;;;5046231;28;20479;-82
2021/11/14 10:42:49;;;;;;;13.17;6.57;;;11.90;1.00;;;;;;5043768;28;21319;-82
2021/11/14 10:45:19;;;;;;;8.67;5.70;;;11.90;1.00;;;;;;5046131;28;20465;-80
2021/11/14 10:47:57;;;;;;;12.37;8.23;;;11.90;1.00;;;;;;5041360;28;20451;-80
2021/11/14 10:50:28;;;;;;;12.03;7.60;;;11.90;1.00;;;;;;5041784;28;20480;-81
2021/11/14 10:52:59;;;;;;;11.27;5.50;;;11.90;99.90;;;;;;5033478;28;20971;-83
2021/11/14 10:55:31;;;;;;;10.50;7.27;;;11.90;99.90;;;;;;5036632;28;20440;-79
2021/11/14 10:58:00;;;;;;;10.97;6.73;;;11.90;99.90;;;;;;5044361;28;20455;-80
2021/11/14 11:00:29;;;;;;;10.53;6.10;;;11.90;99.90;;;;;;5038025;28;20479;-80
2021/11/14 11:02:59;;;;;;;12.13;7.77;;;11.90;99.90;;;;;;5044218;28;20803;-81
2021/11/14 11:05:29;;;;;;;10.93;5.60;;;12.00;99.90;;;;;;5039796;28;20462;-81
2021/11/14 11:07:58;;;;;;;9.80;6.80;;;11.90;99.90;;;;;;5058883;28;20453;-83
2021/11/14 11:10:32;;;;;;;12.43;6.83;;;11.90;99.90;;;;;;5039017;28;20886;-81
2021/11/14 11:13:02;;;;;;;13.10;7.87;;;12.00;1.00;;;;;;5046737;28;20552;-80
2021/11/14 11:15:39;;;;;;;11.80;6.73;;;11.90;99.90;;;;;;5048439;28;20459;-82
2021/11/14 11:18:09;;;;;;;15.70;8.20;;;11.90;1.00;;;;;;5046963;28;20512;-82
2021/11/14 11:20:38;;;;;;;11.63;6.60;;;11.90;1.00;;;;;;5045353;28;20469;-80
2021/11/14 11:23:10;;;;;;;12.87;7.60;;;12.00;1.00;;;;;;5052222;28;20889;-82
2021/11/14 11:25:44;;;;;;;13.67;8.63;;;11.90;1.00;;;;;;5061100;28;20450;-82
2021/11/14 11:28:17;;;;;;;13.00;6.57;;;12.00;1.00;;;;;;5074742;28;20443;-81
2021/11/14 11:30:49;;;;;;;14.20;8.80;;;12.00;1.00;;;;;;5051890;28;20510;-80
2021/11/14 11:33:20;;;;;;;15.27;7.07;;;12.00;1.00;;;;;;5062240;28;20463;-79
2021/11/14 11:35:49;;;;;;;15.00;7.90;;;12.00;1.00;;;;;;5049283;28;20452;-81
2021/11/14 11:38:24;;;;;;;15.13;7.27;;;12.00;1.00;;;;;;5053671;28;20461;-80
2021/11/14 11:40:55;;;;;;;17.63;7.83;;;12.00;1.00;;;;;;5052177;28;20490;-82
2021/11/14 11:43:23;;;;;;;18.40;8.97;;;12.00;99.90;;;;;;5053342;28;20950;-81
2021/11/14 11:45:53;;;;;;;12.93;7.90;;;12.00;1.00;;;;;;5043304;28;20451;-84
2021/11/14 11:48:25;;;;;;;12.40;7.27;;;11.90;1.00;;;;;;5050901;28;20552;-81
2021/11/14 11:51:06;;;;;;;14.03;6.67;;;11.90;99.90;;;;;;5054755;28;20592;-82
2021/11/14 11:53:34;;;;;;;12.53;5.83;;;11.90;99.90;;;;;;5048769;28;20481;-80
2021/11/14 11:56:10;;;;;;;14.00;7.70;;;11.90;99.90;;;;;;5044339;28;20482;-79
2021/11/14 11:58:42;;;;;;;12.33;6.77;;;11.80;1.00;;;;;;5050213;28;20459;-81
2021/11/14 12:01:22;;;;;;;10.87;5.30;;;11.90;1.00;;;;;;5047150;28;20529;-82
2021/11/14 12:03:51;;;;;;;12.33;7.50;;;11.90;1.00;;;;;;5045316;28;20543;-81
2021/11/14 12:06:22;;;;;;;16.53;8.43;;;12.00;1.00;;;;;;5046168;28;20451;-80
2021/11/14 12:08:55;;;;;;;12.57;6.43;;;12.00;1.00;;;;;;5052713;28;20466;-81
2021/11/14 12:11:34;;;;;;;12.87;6.90;;;12.00;1.00;;;;;;5047699;28;20497;-82
2021/11/14 12:14:15;;;;;;;9.43;6.00;;;12.00;1.00;;;;;;5043141;28;20502;-82
2021/11/14 12:17:00;;;;;;;11.63;6.83;;;12.00;1.00;;;;;;5048316;28;20474;-82
2021/11/14 12:19:29;;;;;;;9.83;6.57;;;12.10;1.00;;;;;;5043493;28;20455;-84
2021/11/14 12:22:01;;;;;;;10.77;6.27;;;12.10;1.00;;;;;;5043057;28;20579;-80
2021/11/14 12:24:32;;;;;;;12.23;7.00;;;12.10;1.00;;;;;;5033166;28;20460;-82
2021/11/14 12:27:02;;;;;;;14.23;7.13;;;12.10;1.00;;;;;;5049413;28;20463;-80
2021/11/14 12:29:40;;;;;;;12.53;7.17;;;12.10;1.00;;;;;;5044137;28;20443;-80
2021/11/14 12:32:17;;;;;;;11.13;6.97;;;12.20;1.00;;;;;;5044119;28;20489;-81
2021/11/14 12:34:47;;;;;;;13.10;7.23;;;12.20;1.00;;;;;;5036394;28;20964;-82
2021/11/14 12:37:16;;;;;;;9.77;5.70;;;12.20;99.90;;;;;;5041339;28;21256;-83
2021/11/14 12:39:45;;;;;;;8.20;5.57;;;12.20;99.90;;;;;;5046774;28;20473;-82
2021/11/14 12:42:17;;;;;;;11.43;7.20;;;12.20;99.90;;;;;;5051786;28;20455;-83
2021/11/14 12:44:48;;;;;;;11.53;6.23;;;12.20;99.90;;;;;;5048858;28;20457;-82
2021/11/14 12:47:26;;;;;;;9.47;6.13;;;12.10;99.90;;;;;;5043643;28;20958;-82
2021/11/14 12:50:06;;;;;;;10.10;5.83;;;12.10;99.90;;;;;;5045074;28;21051;-80
2021/11/14 12:52:40;;;;;;;9.30;6.03;;;12.10;99.90;;;;;;5041626;28;20455;-81
2021/11/14 12:55:10;;;;;;;9.13;5.87;;;12.10;99.90;;;;;;5047617;28;20983;-83
2021/11/14 12:57:49;;;;;;;10.07;6.33;;;12.20;99.90;;;;;;5052550;28;20852;-82
2021/11/14 13:00:31;;;;;;;9.77;6.33;;;12.20;99.90;;;;;;5051227;28;20844;-81